createdAt,value
2022-07-29T00:00:45.595Z,13.71
2022-07-29T00:01:50.359Z,13.72
2022-07-29T00:02:52.281Z,13.72
2022-07-29T00:03:56.858Z,13.69
2022-07-29T00:04:58.838Z,13.69
2022-07-29T00:06:03.351Z,13.68
2022-07-29T00:07:05.446Z,13.69
2022-07-29T00:08:12.510Z,13.69
2022-07-29T00:09:14.659Z,13.67
2022-07-29T00:10:19.258Z,13.65
2022-07-29T00:11:21.102Z,13.63
2022-07-29T00:12:26.977Z,13.61
2022-07-29T00:13:32.234Z,13.61
2022-07-29T00:14:37.119Z,13.61
2022-07-29T00:15:39.097Z,13.59
2022-07-29T00:16:43.705Z,13.58
2022-07-29T00:17:45.583Z,13.58
2022-07-29T00:18:49.955Z,13.56
2022-07-29T00:19:51.813Z,13.55
2022-07-29T00:20:56.235Z,13.52
2022-07-29T00:21:58.039Z,13.51
2022-07-29T00:23:02.907Z,13.49
2022-07-29T00:24:04.802Z,13.49
2022-07-29T00:25:09.558Z,13.47
2022-07-29T00:26:11.403Z,13.47
2022-07-29T00:27:15.818Z,13.46
2022-07-29T00:28:17.683Z,13.44
2022-07-29T00:29:37.368Z,13.44
2022-07-29T00:30:39.177Z,13.42
2022-07-29T00:31:43.747Z,13.42
2022-07-29T00:32:45.564Z,13.39
2022-07-29T00:33:49.959Z,13.38
2022-07-29T00:35:06.797Z,13.38
2022-07-29T00:36:08.634Z,13.39
2022-07-29T00:37:10.430Z,13.40
2022-07-29T00:38:15.786Z,13.41
2022-07-29T00:39:17.692Z,13.40
2022-07-29T00:40:23.366Z,13.39
2022-07-29T00:41:25.555Z,13.40
2022-07-29T00:42:29.941Z,13.40
2022-07-29T00:43:34.398Z,13.39
2022-07-29T00:44:39.599Z,13.40
2022-07-29T00:45:44.669Z,13.39
2022-07-29T00:46:46.601Z,13.39
2022-07-29T00:47:51.313Z,13.38
2022-07-29T00:48:53.147Z,13.38
2022-07-29T00:49:57.813Z,13.39
2022-07-29T00:51:02.534Z,13.37
2022-07-29T00:52:07.390Z,13.37
2022-07-29T00:53:11.858Z,13.36
2022-07-29T00:54:13.911Z,13.35
2022-07-29T00:55:18.984Z,13.34
2022-07-29T00:56:20.901Z,13.33
2022-07-29T00:57:25.399Z,13.32
2022-07-29T00:58:27.292Z,13.30
2022-07-29T00:59:35.077Z,13.29
2022-07-29T01:00:41.880Z,13.28
2022-07-29T01:01:43.790Z,13.28
2022-07-29T01:02:49.342Z,13.27
2022-07-29T01:03:51.188Z,13.25
2022-07-29T01:04:56.363Z,13.25
2022-07-29T01:06:00.824Z,13.24
2022-07-29T01:07:03.067Z,13.24
2022-07-29T01:08:07.912Z,13.26
2022-07-29T01:09:10.338Z,13.26
2022-07-29T01:10:15.022Z,13.26
2022-07-29T01:11:17.200Z,13.26
2022-07-29T01:12:23.984Z,13.18
2022-07-29T01:13:28.431Z,13.25
2022-07-29T01:14:30.258Z,13.27
2022-07-29T01:15:34.705Z,13.24
2022-07-29T01:16:41.052Z,13.26
2022-07-29T01:18:03.715Z,13.26
2022-07-29T01:19:09.214Z,13.27
2022-07-29T01:20:15.641Z,13.26
2022-07-29T01:21:52.212Z,13.25
2022-07-29T01:23:15.287Z,13.26
2022-07-29T01:24:31.519Z,13.25
2022-07-29T01:25:36.431Z,13.25
2022-07-29T01:26:51.461Z,13.24
2022-07-29T01:28:13.551Z,13.24
2022-07-29T01:29:17.950Z,13.23
2022-07-29T01:30:20.312Z,13.22
2022-07-29T01:31:59.465Z,13.19
2022-07-29T01:33:06.183Z,13.21
2022-07-29T01:34:08.701Z,13.19
2022-07-29T01:35:14.745Z,13.19
2022-07-29T01:36:36.772Z,13.17
2022-07-29T01:38:01.375Z,13.21
2022-07-29T01:39:23.428Z,13.23
2022-07-29T01:40:38.753Z,13.24
2022-07-29T01:41:41.777Z,13.24
2022-07-29T01:42:47.062Z,13.24
2022-07-29T01:43:48.818Z,13.24
2022-07-29T01:44:58.492Z,13.23
2022-07-29T01:46:02.031Z,13.23
2022-07-29T01:47:09.292Z,13.23
2022-07-29T01:48:13.840Z,13.21
2022-07-29T01:49:19.260Z,13.21
2022-07-29T01:50:21.188Z,13.22
2022-07-29T01:51:28.386Z,13.21
2022-07-29T01:52:35.959Z,13.21
2022-07-29T01:53:46.497Z,13.19
2022-07-29T01:54:56.351Z,13.19
2022-07-29T01:56:01.019Z,13.21
2022-07-29T01:57:03.110Z,13.23
2022-07-29T01:58:07.840Z,13.22
2022-07-29T01:59:09.705Z,13.22
2022-07-29T02:00:15.726Z,13.23
2022-07-29T02:01:17.515Z,13.24
2022-07-29T02:02:22.023Z,13.22
2022-07-29T02:03:27.205Z,13.22
2022-07-29T02:04:30.318Z,13.21
2022-07-29T02:05:34.924Z,13.19
2022-07-29T02:06:36.977Z,13.18
2022-07-29T02:07:41.817Z,13.17
2022-07-29T02:08:43.598Z,13.17
2022-07-29T02:09:48.092Z,13.19
2022-07-29T02:10:49.919Z,13.18
2022-07-29T02:11:55.320Z,13.20
2022-07-29T02:12:57.671Z,13.20
2022-07-29T02:14:02.076Z,13.21
2022-07-29T02:15:04.380Z,13.19
2022-07-29T02:16:10.094Z,13.20
2022-07-29T02:17:12.262Z,13.18
2022-07-29T02:18:18.825Z,13.18
2022-07-29T02:19:21.043Z,13.19
2022-07-29T02:20:26.149Z,13.17
2022-07-29T02:21:28.299Z,13.17
2022-07-29T02:22:33.501Z,13.18
2022-07-29T02:23:45.075Z,13.18
2022-07-29T02:24:55.717Z,13.17
2022-07-29T02:25:58.090Z,13.18
2022-07-29T02:27:02.723Z,13.17
2022-07-29T02:28:04.837Z,13.16
2022-07-29T02:29:09.202Z,13.17
2022-07-29T02:30:12.560Z,13.18
2022-07-29T02:31:17.147Z,13.16
2022-07-29T02:32:19.051Z,13.13
2022-07-29T02:33:23.488Z,13.15
2022-07-29T02:34:25.375Z,13.16
2022-07-29T02:35:34.875Z,13.17
2022-07-29T02:36:36.890Z,13.17
2022-07-29T02:37:41.314Z,13.17
2022-07-29T02:38:52.932Z,13.16
2022-07-29T02:39:57.789Z,13.17
2022-07-29T02:41:00.081Z,13.16
2022-07-29T02:42:08.050Z,13.17
2022-07-29T02:43:12.618Z,13.18
2022-07-29T02:44:18.535Z,13.19
2022-07-29T02:45:20.570Z,13.19
2022-07-29T02:46:29.060Z,13.21
2022-07-29T02:47:46.834Z,13.22
2022-07-29T02:48:50.714Z,13.22
2022-07-29T02:50:02.474Z,13.23
2022-07-29T02:51:43.607Z,13.23
2022-07-29T02:53:00.278Z,13.24
2022-07-29T02:55:36.048Z,13.26
2022-07-29T02:56:38.752Z,13.28
2022-07-29T02:58:02.823Z,13.28
2022-07-29T02:59:05.794Z,13.30
2022-07-29T03:00:10.950Z,13.31
2022-07-29T03:01:21.322Z,13.31
2022-07-29T03:02:26.662Z,13.36
2022-07-29T03:03:30.626Z,13.38
2022-07-29T03:04:35.445Z,13.40
2022-07-29T03:05:37.281Z,13.44
2022-07-29T03:06:43.219Z,13.49
2022-07-29T03:07:49.456Z,13.54
2022-07-29T03:08:51.295Z,13.58
2022-07-29T03:09:55.691Z,13.62
2022-07-29T03:10:57.502Z,13.67
2022-07-29T03:12:01.909Z,13.71
2022-07-29T03:13:04.483Z,13.81
2022-07-29T03:14:09.079Z,13.95
2022-07-29T03:15:11.667Z,14.17
2022-07-29T03:16:16.632Z,14.41
2022-07-29T03:17:18.502Z,14.72
2022-07-29T03:18:22.911Z,15.03
2022-07-29T03:19:24.884Z,15.33
2022-07-29T03:20:29.843Z,15.64
2022-07-29T03:21:31.919Z,15.95
2022-07-29T03:22:36.399Z,16.24
2022-07-29T03:23:38.206Z,16.54
2022-07-29T03:24:42.612Z,16.84
2022-07-29T03:25:44.500Z,17.08
2022-07-29T03:26:48.901Z,17.24
2022-07-29T03:27:53.307Z,17.45
2022-07-29T03:28:55.924Z,17.75
2022-07-29T03:30:00.323Z,18.03
2022-07-29T03:31:02.203Z,18.27
2022-07-29T03:32:08.426Z,18.52
2022-07-29T03:33:13.320Z,18.80
2022-07-29T03:34:18.544Z,19.08
2022-07-29T03:35:21.009Z,19.39
2022-07-29T03:36:25.874Z,19.71
2022-07-29T03:37:27.689Z,20.06
2022-07-29T03:38:32.475Z,20.33
2022-07-29T03:39:36.649Z,20.64
2022-07-29T03:40:49.014Z,20.93
2022-07-29T03:41:51.039Z,21.30
2022-07-29T03:42:55.559Z,21.59
2022-07-29T03:43:57.675Z,21.89
2022-07-29T03:45:02.764Z,22.09
2022-07-29T03:46:05.131Z,22.15
2022-07-29T03:47:13.277Z,22.37
2022-07-29T03:48:15.499Z,22.79
2022-07-29T03:49:20.358Z,23.16
2022-07-29T03:50:22.520Z,23.51
2022-07-29T03:51:34.066Z,23.81
2022-07-29T03:52:38.735Z,24.17
2022-07-29T03:53:43.121Z,24.54
2022-07-29T03:54:44.989Z,24.82
2022-07-29T03:55:59.329Z,25.03
2022-07-29T03:57:01.371Z,25.31
2022-07-29T03:58:05.865Z,25.57
2022-07-29T03:59:07.662Z,25.74
2022-07-29T04:00:12.512Z,25.83
2022-07-29T04:01:14.358Z,26.05
2022-07-29T04:02:21.946Z,26.29
2022-07-29T04:03:25.638Z,26.51
2022-07-29T04:04:30.123Z,26.75
2022-07-29T04:05:31.923Z,26.98
2022-07-29T04:06:46.091Z,27.22
2022-07-29T04:07:50.327Z,27.57
2022-07-29T04:08:55.055Z,27.86
2022-07-29T04:09:56.933Z,28.19
2022-07-29T04:11:01.745Z,28.50
2022-07-29T04:12:06.262Z,28.81
2022-07-29T04:13:08.148Z,29.07
2022-07-29T04:14:12.875Z,29.32
2022-07-29T04:15:14.915Z,29.53
2022-07-29T04:16:19.324Z,29.81
2022-07-29T04:17:23.796Z,30.04
2022-07-29T04:18:25.637Z,30.22
2022-07-29T04:19:30.174Z,30.45
2022-07-29T04:20:31.984Z,30.57
2022-07-29T04:21:40.651Z,30.72
2022-07-29T04:22:42.539Z,30.81
2022-07-29T04:23:53.822Z,30.91
2022-07-29T04:24:59.093Z,31.09
2022-07-29T04:26:10.705Z,31.38
2022-07-29T04:27:12.792Z,31.45
2022-07-29T04:28:17.242Z,31.59
2022-07-29T04:29:19.110Z,31.68
2022-07-29T04:30:23.565Z,31.79
2022-07-29T04:31:28.074Z,31.92
2022-07-29T04:32:30.024Z,32.03
2022-07-29T04:33:34.439Z,32.12
2022-07-29T04:34:39.248Z,32.20
2022-07-29T04:35:50.569Z,32.19
2022-07-29T04:36:57.027Z,32.35
2022-07-29T04:37:58.834Z,32.35
2022-07-29T04:39:03.304Z,32.43
2022-07-29T04:40:05.435Z,32.58
2022-07-29T04:41:10.201Z,32.53
2022-07-29T04:42:13.277Z,32.67
2022-07-29T04:43:21.219Z,32.71
2022-07-29T04:44:28.968Z,32.75
2022-07-29T04:45:31.126Z,32.83
2022-07-29T04:46:35.788Z,32.77
2022-07-29T04:47:37.686Z,32.54
2022-07-29T04:48:42.516Z,32.73
2022-07-29T04:49:44.414Z,32.68
2022-07-29T04:50:48.877Z,32.73
2022-07-29T04:51:53.363Z,32.70
2022-07-29T04:52:55.191Z,32.70
2022-07-29T04:53:59.592Z,32.70
2022-07-29T04:55:01.386Z,32.82
2022-07-29T04:56:05.997Z,32.75
2022-07-29T04:57:07.828Z,32.58
2022-07-29T04:58:12.210Z,32.44
2022-07-29T04:59:14.096Z,32.37
2022-07-29T05:00:18.770Z,32.36
2022-07-29T05:01:20.730Z,32.24
2022-07-29T05:02:25.550Z,32.03
2022-07-29T05:03:27.379Z,31.82
2022-07-29T05:04:31.771Z,31.57
2022-07-29T05:05:33.636Z,31.43
2022-07-29T05:06:38.082Z,31.00
2022-07-29T05:07:39.908Z,30.66
2022-07-29T05:08:44.306Z,29.48
2022-07-29T05:09:46.179Z,27.63
2022-07-29T05:10:50.631Z,26.30
2022-07-29T05:11:52.487Z,25.57
2022-07-29T05:12:56.940Z,24.92
2022-07-29T05:13:58.747Z,24.19
2022-07-29T05:15:03.170Z,23.74
2022-07-29T05:16:05.205Z,23.35
2022-07-29T05:17:09.643Z,22.74
2022-07-29T05:18:11.455Z,22.36
2022-07-29T05:19:15.920Z,22.11
2022-07-29T05:20:19.452Z,21.99
2022-07-29T05:21:24.842Z,21.75
2022-07-29T05:22:26.662Z,21.60
2022-07-29T05:23:31.062Z,21.48
2022-07-29T05:24:32.875Z,21.32
2022-07-29T05:25:43.521Z,21.14
2022-07-29T05:26:46.626Z,20.92
2022-07-29T05:27:51.122Z,20.85
2022-07-29T05:28:53.032Z,20.78
2022-07-29T05:29:57.760Z,20.78
2022-07-29T05:30:59.633Z,20.64
2022-07-29T05:32:04.291Z,20.65
2022-07-29T05:33:06.123Z,20.60
2022-07-29T05:34:10.520Z,20.58
2022-07-29T05:35:13.769Z,20.49
2022-07-29T05:36:18.221Z,20.46
2022-07-29T05:37:20.665Z,20.35
2022-07-29T05:38:25.185Z,20.25
2022-07-29T05:39:47.278Z,20.25
2022-07-29T05:40:51.467Z,20.25
2022-07-29T05:41:53.398Z,20.16
2022-07-29T05:42:57.833Z,20.11
2022-07-29T05:43:59.750Z,20.06
2022-07-29T05:45:04.636Z,19.98
2022-07-29T05:46:06.620Z,19.86
2022-07-29T05:47:11.071Z,19.94
2022-07-29T05:48:13.242Z,19.89
2022-07-29T05:49:26.949Z,19.90
2022-07-29T05:50:31.843Z,19.88
2022-07-29T05:51:34.392Z,19.96
2022-07-29T05:52:38.867Z,19.99
2022-07-29T05:53:40.732Z,19.99
2022-07-29T05:54:45.186Z,20.00
2022-07-29T05:55:47.034Z,20.00
2022-07-29T05:56:51.541Z,19.95
2022-07-29T05:57:56.159Z,19.92
2022-07-29T05:58:58.030Z,19.99
2022-07-29T06:00:02.474Z,20.02
2022-07-29T06:01:14.228Z,20.11
2022-07-29T06:02:18.831Z,20.11
2022-07-29T06:03:20.889Z,20.16
2022-07-29T06:04:25.471Z,20.18
2022-07-29T06:05:27.366Z,20.21
2022-07-29T06:06:31.772Z,20.30
2022-07-29T06:07:36.163Z,20.32
2022-07-29T06:08:38.462Z,20.18
2022-07-29T06:09:43.090Z,20.30
2022-07-29T06:10:44.985Z,20.32
2022-07-29T06:11:49.400Z,20.41
2022-07-29T06:12:51.337Z,20.41
2022-07-29T06:13:55.733Z,20.44
2022-07-29T06:15:00.783Z,20.48
2022-07-29T06:16:03.321Z,20.48
2022-07-29T06:17:08.487Z,20.51
2022-07-29T06:18:11.200Z,20.54
2022-07-29T06:19:15.659Z,20.57
2022-07-29T06:20:20.472Z,20.58
2022-07-29T06:21:31.694Z,20.69
2022-07-29T06:22:33.558Z,20.71
2022-07-29T06:23:37.967Z,20.78
2022-07-29T06:24:44.909Z,20.81
2022-07-29T06:25:46.781Z,20.78
2022-07-29T06:26:51.208Z,20.87
2022-07-29T06:27:53.391Z,20.89
2022-07-29T06:28:57.922Z,20.84
2022-07-29T06:29:59.793Z,20.88
2022-07-29T06:31:04.267Z,20.96
2022-07-29T06:32:06.445Z,21.00
2022-07-29T06:33:11.054Z,21.07
2022-07-29T06:34:13.116Z,21.06
2022-07-29T06:35:41.290Z,21.05
2022-07-29T06:36:43.028Z,21.14
2022-07-29T06:37:44.864Z,21.19
2022-07-29T06:38:52.015Z,21.24
2022-07-29T06:40:14.294Z,21.21
2022-07-29T06:41:19.181Z,21.28
2022-07-29T06:42:21.090Z,21.31
2022-07-29T06:43:26.358Z,21.35
2022-07-29T06:44:30.885Z,21.37
2022-07-29T06:45:35.679Z,21.36
2022-07-29T06:46:40.229Z,21.42
2022-07-29T06:47:42.128Z,21.30
2022-07-29T06:48:46.858Z,21.46
2022-07-29T06:49:49.887Z,21.50
2022-07-29T06:50:54.688Z,21.56
2022-07-29T06:51:57.039Z,21.60
2022-07-29T06:53:01.499Z,21.63
2022-07-29T06:54:06.934Z,21.64
2022-07-29T06:55:09.078Z,21.67
2022-07-29T06:56:14.958Z,21.76
2022-07-29T06:57:19.419Z,21.84
2022-07-29T06:58:21.618Z,21.87
2022-07-29T06:59:35.820Z,21.93
2022-07-29T07:00:38.272Z,21.97
2022-07-29T07:01:43.776Z,21.96
2022-07-29T07:02:45.705Z,21.96
2022-07-29T07:03:51.896Z,21.90
2022-07-29T07:04:53.791Z,21.98
2022-07-29T07:05:58.450Z,22.01
2022-07-29T07:07:04.715Z,22.03
2022-07-29T07:08:06.787Z,22.08
2022-07-29T07:09:11.242Z,22.13
2022-07-29T07:10:13.088Z,22.16
2022-07-29T07:11:17.498Z,22.19
2022-07-29T07:12:19.374Z,22.25
2022-07-29T07:13:23.849Z,22.29
2022-07-29T07:14:27.697Z,22.34
2022-07-29T07:15:39.792Z,22.40
2022-07-29T07:16:44.709Z,22.46
2022-07-29T07:17:46.587Z,22.50
2022-07-29T07:18:55.996Z,22.50
2022-07-29T07:19:57.811Z,22.54
2022-07-29T07:21:02.395Z,22.59
2022-07-29T07:22:04.253Z,22.55
2022-07-29T07:23:09.751Z,22.58
2022-07-29T07:24:14.564Z,22.61
2022-07-29T07:25:18.339Z,22.62
2022-07-29T07:26:22.888Z,22.68
2022-07-29T07:27:24.727Z,22.70
2022-07-29T07:28:29.367Z,22.72
2022-07-29T07:29:31.252Z,22.76
2022-07-29T07:30:35.660Z,22.74
2022-07-29T07:31:37.792Z,22.77
2022-07-29T07:32:42.270Z,22.78
2022-07-29T07:33:46.661Z,22.77
2022-07-29T07:34:48.508Z,22.80
2022-07-29T07:35:52.937Z,22.81
2022-07-29T07:36:54.775Z,22.83
2022-07-29T07:37:59.804Z,22.87
2022-07-29T07:39:01.981Z,22.90
2022-07-29T07:40:06.924Z,22.97
2022-07-29T07:41:11.335Z,23.05
2022-07-29T07:42:14.945Z,23.09
2022-07-29T07:43:19.426Z,22.98
2022-07-29T07:44:21.528Z,23.03
2022-07-29T07:45:26.182Z,22.94
2022-07-29T07:46:30.709Z,22.94
2022-07-29T07:47:32.762Z,22.98
2022-07-29T07:48:38.744Z,23.03
2022-07-29T07:49:41.710Z,23.12
2022-07-29T07:50:46.419Z,23.14
2022-07-29T07:51:50.691Z,23.21
2022-07-29T07:52:58.716Z,23.26
2022-07-29T07:54:04.140Z,23.20
2022-07-29T07:55:06.252Z,23.29
2022-07-29T07:56:12.129Z,23.31
2022-07-29T07:57:14.670Z,23.33
2022-07-29T07:58:19.087Z,23.39
2022-07-29T07:59:20.872Z,23.46
2022-07-29T08:00:25.794Z,23.50
2022-07-29T08:01:30.274Z,23.58
2022-07-29T08:02:52.668Z,23.66
2022-07-29T08:03:54.602Z,23.73
2022-07-29T08:05:00.538Z,23.77
2022-07-29T08:06:02.558Z,23.76
2022-07-29T08:07:07.010Z,23.83
2022-07-29T08:08:12.074Z,23.88
2022-07-29T08:09:28.827Z,23.96
2022-07-29T08:10:46.898Z,24.00
2022-07-29T08:11:52.350Z,24.03
2022-07-29T08:12:56.986Z,24.06
2022-07-29T08:13:58.924Z,23.95
2022-07-29T08:15:03.357Z,23.92
2022-07-29T08:16:12.821Z,23.89
2022-07-29T08:17:17.353Z,23.98
2022-07-29T08:18:19.170Z,23.77
2022-07-29T08:19:23.592Z,23.85
2022-07-29T08:20:26.186Z,23.88
2022-07-29T08:21:30.789Z,23.86
2022-07-29T08:22:32.635Z,23.78
2022-07-29T08:23:47.211Z,23.85
2022-07-29T08:24:55.682Z,23.92
2022-07-29T08:26:00.200Z,24.02
2022-07-29T08:27:02.020Z,24.04
2022-07-29T08:28:06.547Z,24.05
2022-07-29T08:29:08.455Z,24.05
2022-07-29T08:30:12.981Z,24.11
2022-07-29T08:31:15.054Z,24.11
2022-07-29T08:32:43.472Z,23.87
2022-07-29T08:33:44.057Z,24.09
2022-07-29T08:34:48.449Z,24.15
2022-07-29T08:35:51.383Z,24.23
2022-07-29T08:36:55.898Z,24.29
2022-07-29T08:37:58.028Z,24.40
2022-07-29T08:39:02.729Z,24.51
2022-07-29T08:40:04.726Z,24.62
2022-07-29T08:41:09.131Z,24.71
2022-07-29T08:42:14.909Z,24.67
2022-07-29T08:43:16.703Z,24.70
2022-07-29T08:44:30.628Z,24.69
2022-07-29T08:45:35.741Z,24.84
2022-07-29T08:46:42.959Z,24.91
2022-07-29T08:47:47.689Z,25.01
2022-07-29T08:48:52.214Z,24.99
2022-07-29T08:49:56.691Z,25.00
2022-07-29T08:50:58.507Z,25.02
2022-07-29T08:52:04.485Z,25.13
2022-07-29T08:53:07.137Z,25.24
2022-07-29T08:54:16.058Z,25.38
2022-07-29T08:55:18.190Z,25.60
2022-07-29T08:56:26.047Z,25.71
2022-07-29T08:57:31.200Z,25.82
2022-07-29T08:58:36.928Z,25.94
2022-07-29T08:59:42.788Z,25.99
2022-07-29T09:00:51.124Z,26.02
2022-07-29T09:01:55.925Z,26.02
2022-07-29T09:03:00.266Z,26.00
2022-07-29T09:04:05.506Z,26.07
2022-07-29T09:05:10.306Z,26.12
2022-07-29T09:06:14.555Z,26.21
2022-07-29T09:07:19.668Z,26.22
2022-07-29T09:08:21.512Z,26.08
2022-07-29T09:09:26.101Z,26.11
2022-07-29T09:10:29.779Z,26.11
2022-07-29T09:11:35.554Z,25.89
2022-07-29T09:12:39.950Z,26.02
2022-07-29T09:13:42.945Z,25.80
2022-07-29T09:14:47.432Z,25.92
2022-07-29T09:15:49.813Z,25.96
2022-07-29T09:16:56.031Z,26.06
2022-07-29T09:17:59.504Z,26.09
2022-07-29T09:19:03.924Z,26.10
2022-07-29T09:20:46.879Z,25.96
2022-07-29T09:22:04.067Z,26.11
2022-07-29T09:23:09.013Z,26.26
2022-07-29T09:24:16.970Z,26.35
2022-07-29T09:25:40.240Z,26.31
2022-07-29T09:26:45.425Z,26.40
2022-07-29T09:27:53.560Z,26.22
2022-07-29T09:28:55.457Z,26.13
2022-07-29T09:30:01.233Z,26.17
2022-07-29T09:31:03.575Z,26.10
2022-07-29T09:32:09.944Z,26.30
2022-07-29T09:33:14.426Z,26.44
2022-07-29T09:34:29.360Z,26.68
2022-07-29T09:35:34.239Z,26.76
2022-07-29T09:36:48.926Z,26.93
2022-07-29T09:37:53.548Z,27.08
2022-07-29T09:39:00.025Z,27.10
2022-07-29T09:40:08.951Z,27.04
2022-07-29T09:41:15.165Z,26.81
2022-07-29T09:42:20.804Z,26.95
2022-07-29T09:43:22.656Z,27.02
2022-07-29T09:44:27.242Z,27.08
2022-07-29T09:45:30.442Z,26.72
2022-07-29T09:46:35.049Z,26.69
2022-07-29T09:47:46.063Z,26.51
2022-07-29T09:49:11.497Z,26.49
2022-07-29T09:50:16.019Z,26.49
2022-07-29T09:51:20.760Z,26.50
2022-07-29T09:52:28.269Z,26.55
2022-07-29T09:53:37.561Z,26.49
2022-07-29T09:54:42.434Z,26.50
2022-07-29T09:55:48.382Z,26.35
2022-07-29T09:56:53.209Z,26.45
2022-07-29T09:57:57.730Z,26.50
2022-07-29T09:59:09.077Z,26.61
2022-07-29T10:00:15.004Z,26.68
2022-07-29T10:01:19.487Z,26.75
2022-07-29T10:02:23.728Z,26.94
2022-07-29T10:03:28.630Z,27.04
2022-07-29T10:04:40.309Z,27.20
2022-07-29T10:05:44.814Z,27.27
2022-07-29T10:07:03.537Z,27.44
2022-07-29T10:08:09.867Z,27.49
2022-07-29T10:09:12.181Z,27.55
2022-07-29T10:10:22.238Z,27.78
2022-07-29T10:11:26.735Z,28.04
2022-07-29T10:12:55.318Z,28.14
2022-07-29T10:13:57.170Z,28.34
2022-07-29T10:15:01.651Z,28.24
2022-07-29T10:16:03.521Z,28.29
2022-07-29T10:17:08.538Z,28.09
2022-07-29T10:18:13.378Z,28.06
2022-07-29T10:19:15.233Z,28.13
2022-07-29T10:20:19.984Z,28.27
2022-07-29T10:21:34.903Z,28.14
2022-07-29T10:22:52.884Z,28.30
2022-07-29T10:24:01.314Z,28.34
2022-07-29T10:25:06.264Z,28.28
2022-07-29T10:26:08.726Z,28.31
2022-07-29T10:27:13.736Z,28.35
2022-07-29T10:28:17.036Z,28.59
2022-07-29T10:29:21.560Z,28.91
2022-07-29T10:30:27.023Z,29.16
2022-07-29T10:31:37.433Z,29.30
2022-07-29T10:32:54.466Z,29.57
2022-07-29T10:34:02.207Z,29.80
2022-07-29T10:35:24.888Z,30.04
2022-07-29T10:36:48.015Z,29.82
2022-07-29T10:37:54.013Z,29.97
2022-07-29T10:39:18.346Z,29.81
2022-07-29T10:40:44.511Z,29.58
2022-07-29T10:42:07.288Z,29.05
2022-07-29T10:43:26.820Z,28.51
2022-07-29T10:44:34.390Z,28.63
2022-07-29T10:45:36.713Z,28.44
2022-07-29T10:46:41.753Z,28.40
2022-07-29T10:47:48.098Z,28.29
2022-07-29T10:49:08.120Z,28.42
2022-07-29T10:50:16.983Z,28.34
2022-07-29T10:51:19.809Z,28.43
2022-07-29T10:52:26.634Z,28.06
2022-07-29T10:54:07.505Z,27.96
2022-07-29T10:55:11.980Z,28.08
2022-07-29T10:56:35.147Z,28.19
2022-07-29T10:57:53.341Z,28.11
2022-07-29T10:59:17.546Z,28.27
2022-07-29T11:00:28.974Z,28.22
2022-07-29T11:01:37.714Z,28.28
2022-07-29T11:02:41.917Z,28.38
2022-07-29T11:03:53.498Z,28.42
2022-07-29T11:04:58.988Z,28.42
2022-07-29T11:06:08.788Z,28.35
2022-07-29T11:07:11.711Z,28.37
2022-07-29T11:08:19.945Z,28.41
2022-07-29T11:09:30.171Z,28.45
2022-07-29T11:10:37.262Z,28.53
2022-07-29T11:11:51.408Z,28.55
2022-07-29T11:12:53.751Z,28.54
2022-07-29T11:13:58.388Z,28.42
2022-07-29T11:15:01.580Z,28.05
2022-07-29T11:16:07.814Z,28.11
2022-07-29T11:17:14.093Z,28.15
2022-07-29T11:18:17.464Z,28.20
2022-07-29T11:19:29.821Z,28.29
2022-07-29T11:20:36.502Z,28.18
2022-07-29T11:21:53.551Z,28.30
2022-07-29T11:23:05.375Z,28.04
2022-07-29T11:24:14.748Z,28.06
2022-07-29T11:26:45.712Z,28.08
2022-07-29T11:27:48.631Z,28.28
2022-07-29T11:28:53.127Z,28.44
2022-07-29T11:30:01.233Z,28.55
2022-07-29T11:31:03.395Z,28.57
2022-07-29T11:32:15.969Z,28.72
2022-07-29T11:33:54.514Z,28.82
2022-07-29T11:35:17.574Z,28.74
2022-07-29T11:36:20.154Z,28.79
2022-07-29T11:37:32.878Z,28.81
2022-07-29T11:38:44.486Z,28.75
2022-07-29T11:39:50.959Z,28.76
2022-07-29T11:41:38.217Z,28.76
2022-07-29T11:44:08.927Z,28.78
2022-07-29T11:45:44.312Z,28.91
2022-07-29T11:48:29.166Z,29.11
2022-07-29T11:49:34.309Z,29.11
2022-07-29T11:50:44.398Z,28.83
2022-07-29T11:51:51.494Z,28.62
2022-07-29T11:52:55.911Z,28.57
2022-07-29T11:54:05.270Z,28.65
2022-07-29T11:55:09.993Z,28.77
2022-07-29T11:56:17.062Z,28.85
2022-07-29T11:57:19.659Z,28.86
2022-07-29T11:58:26.600Z,28.93
2022-07-29T11:59:33.425Z,28.72
2022-07-29T12:00:43.667Z,28.70
2022-07-29T12:02:12.045Z,28.50
2022-07-29T12:03:35.387Z,28.25
2022-07-29T12:04:51.221Z,28.03
2022-07-29T12:05:57.505Z,27.62
2022-07-29T12:07:00.469Z,27.53
2022-07-29T12:07:02.023Z,29.05
2022-07-29T12:08:14.736Z,27.59
2022-07-29T12:09:16.866Z,27.69
2022-07-29T12:10:30.009Z,27.68
2022-07-29T12:11:32.779Z,27.82
2022-07-29T12:12:39.665Z,27.93
2022-07-29T12:13:44.060Z,28.02
2022-07-29T12:14:47.652Z,27.96
2022-07-29T12:16:00.054Z,27.77
2022-07-29T12:17:02.199Z,27.64
2022-07-29T12:18:16.191Z,27.77
2022-07-29T12:19:20.272Z,27.85
2022-07-29T12:20:35.111Z,27.70
2022-07-29T12:21:52.360Z,27.75
2022-07-29T12:23:01.091Z,27.76
2022-07-29T12:24:09.143Z,27.77
2022-07-29T12:25:32.910Z,27.74
2022-07-29T12:26:38.284Z,27.54
2022-07-29T12:27:44.238Z,27.51
2022-07-29T12:28:49.420Z,27.45
2022-07-29T12:29:57.848Z,27.46
2022-07-29T12:31:03.135Z,27.44
2022-07-29T12:32:10.310Z,27.59
2022-07-29T12:33:21.141Z,27.71
2022-07-29T12:34:26.165Z,27.78
2022-07-29T12:35:30.623Z,27.65
2022-07-29T12:36:35.074Z,27.66
2022-07-29T12:37:40.705Z,27.72
2022-07-29T12:38:45.994Z,27.91
2022-07-29T12:39:48.440Z,27.84
2022-07-29T12:40:52.995Z,27.87
2022-07-29T12:42:04.670Z,27.79
2022-07-29T12:43:13.051Z,27.93
2022-07-29T12:44:17.458Z,28.01
2022-07-29T12:45:19.329Z,28.03
2022-07-29T12:46:23.886Z,28.09
2022-07-29T12:47:25.727Z,28.24
2022-07-29T12:48:39.047Z,28.31
2022-07-29T12:49:40.998Z,28.41
2022-07-29T12:50:58.510Z,28.48
2022-07-29T12:52:00.675Z,28.61
2022-07-29T12:53:12.431Z,28.67
2022-07-29T12:54:17.532Z,28.69
2022-07-29T12:55:38.153Z,28.66
2022-07-29T12:56:44.464Z,28.82
2022-07-29T12:57:48.077Z,28.44
2022-07-29T12:58:52.789Z,28.64
2022-07-29T13:00:01.725Z,28.56
2022-07-29T13:01:17.366Z,28.60
2022-07-29T13:02:25.272Z,28.60
2022-07-29T13:03:30.280Z,28.75
2022-07-29T13:04:40.431Z,28.69
2022-07-29T13:05:48.573Z,28.67
2022-07-29T13:06:54.089Z,28.66
2022-07-29T13:07:57.544Z,28.75
2022-07-29T13:09:23.434Z,28.65
2022-07-29T13:10:26.136Z,28.60
2022-07-29T13:11:31.584Z,28.76
2022-07-29T13:12:39.145Z,28.90
2022-07-29T13:14:06.593Z,28.95
2022-07-29T13:15:18.450Z,29.05
2022-07-29T13:16:20.620Z,29.07
2022-07-29T13:17:28.440Z,29.08
2022-07-29T13:18:36.431Z,28.88
2022-07-29T13:19:41.857Z,28.81
2022-07-29T13:20:46.275Z,28.96
2022-07-29T13:21:48.104Z,28.98
2022-07-29T13:22:52.981Z,29.14
2022-07-29T13:23:54.879Z,29.41
2022-07-29T13:25:00.069Z,29.38
2022-07-29T13:26:10.915Z,29.30
2022-07-29T13:27:15.424Z,29.32
2022-07-29T13:28:19.883Z,29.37
2022-07-29T13:29:21.719Z,29.34
2022-07-29T13:30:28.192Z,29.32
2022-07-29T13:31:30.195Z,29.05
2022-07-29T13:32:35.482Z,28.99
2022-07-29T13:33:37.387Z,28.96
2022-07-29T13:34:41.860Z,28.86
2022-07-29T13:35:44.170Z,28.56
2022-07-29T13:36:48.692Z,28.31
2022-07-29T13:37:53.660Z,28.22
2022-07-29T13:38:55.628Z,28.07
2022-07-29T13:40:01.643Z,28.10
2022-07-29T13:41:03.499Z,27.94
2022-07-29T13:42:10.882Z,27.88
2022-07-29T13:43:15.673Z,27.63
2022-07-29T13:44:17.518Z,27.62
2022-07-29T13:45:22.100Z,27.62
2022-07-29T13:46:24.231Z,27.52
2022-07-29T13:47:31.848Z,27.57
2022-07-29T13:48:34.816Z,27.47
2022-07-29T13:49:39.302Z,27.54
2022-07-29T13:50:41.174Z,27.51
2022-07-29T13:51:45.765Z,27.47
2022-07-29T13:52:49.410Z,27.34
2022-07-29T13:53:53.871Z,27.29
2022-07-29T13:54:55.703Z,27.28
2022-07-29T13:56:00.154Z,27.33
2022-07-29T13:57:01.964Z,27.45
2022-07-29T13:58:06.379Z,27.54
2022-07-29T13:59:08.852Z,27.38
2022-07-29T14:00:13.804Z,27.40
2022-07-29T14:01:18.305Z,27.34
2022-07-29T14:02:20.171Z,27.42
2022-07-29T14:03:25.513Z,27.44
2022-07-29T14:04:27.581Z,27.22
2022-07-29T14:05:33.077Z,27.28
2022-07-29T14:06:37.504Z,27.42
2022-07-29T14:07:45.102Z,27.55
2022-07-29T14:08:46.951Z,27.63
2022-07-29T14:09:51.486Z,27.51
2022-07-29T14:10:55.928Z,27.40
2022-07-29T14:11:58.193Z,27.36
2022-07-29T14:13:03.666Z,27.23
2022-07-29T14:14:05.828Z,27.22
2022-07-29T14:15:10.574Z,27.24
2022-07-29T14:16:12.486Z,27.34
2022-07-29T14:17:17.205Z,27.36